Time;durP1;ratioP1;P1;durP2;ratioP2;P2;SDS_P1;SDS_P2;PMS_P1;PMS_P2;Temp;Humidity;BMP_temperature;BMP_pressure;BME280_temperature;BME280_humidity;BME280_pressure;Samples;Min_cycle;Max_cycle;Signal;HPM_P1;HPM_P2
2023/03/21 00:00:24;;;;;;;0.50;0.50;;;;;;;8.24;74.31;97092.31;29397;273;63004;-58
2023/03/21 00:00:58;;;;;;;0.50;0.50;;;;;;;8.23;74.47;97104.22;29395;210;64009;-59
2023/03/21 00:01:29;;;;;;;0.50;0.50;;;;;;;8.23;74.50;97098.00;29397;240;63017;-57
2023/03/21 00:02:02;;;;;;;0.50;0.50;;;;;;;8.23;74.76;97098.00;29397;244;63005;-59
2023/03/21 00:02:34;;;;;;;0.50;0.50;;;;;;;8.23;74.30;97103.41;29397;197;63009;-57
2023/03/21 00:03:05;;;;;;;0.50;0.50;;;;;;;8.20;74.27;97095.84;29397;236;63005;-58
2023/03/21 00:03:36;;;;;;;0.50;0.50;;;;;;;8.19;74.39;97096.91;29395;260;63013;-58
2023/03/21 00:04:08;;;;;;;0.50;0.50;;;;;;;8.19;74.96;97092.31;29395;199;63005;-58
2023/03/21 00:04:39;;;;;;;0.50;0.50;;;;;;;8.19;74.86;97100.44;29395;199;63009;-57
2023/03/21 00:05:11;;;;;;;0.50;0.50;;;;;;;8.18;74.70;97089.91;29395;199;63010;-57
2023/03/21 00:05:50;;;;;;;0.50;0.50;;;;;;;8.18;74.60;97085.31;29395;288;63009;-57
2023/03/21 00:06:22;;;;;;;0.50;0.50;;;;;;;8.19;74.59;97099.63;29394;214;64009;-57
2023/03/21 00:06:53;;;;;;;0.50;0.50;;;;;;;8.18;74.25;97090.69;29395;208;63009;-57
2023/03/21 00:07:25;;;;;;;0.50;0.50;;;;;;;8.20;74.28;97093.12;29393;201;64008;-57
2023/03/21 00:07:57;;;;;;;0.50;0.50;;;;;;;8.20;74.34;97098.53;29395;206;63008;-57
2023/03/21 00:08:30;;;;;;;0.50;0.50;;;;;;;8.21;74.44;97094.75;29395;266;63008;-57
2023/03/21 00:09:02;;;;;;;0.50;0.50;;;;;;;8.21;74.43;97092.06;29395;305;63009;-57
2023/03/21 00:09:34;;;;;;;0.50;0.50;;;;;;;8.21;74.67;97090.16;29395;284;63005;-58
2023/03/21 00:10:06;;;;;;;0.50;0.50;;;;;;;8.22;74.34;97099.09;29395;263;63009;-57
2023/03/21 00:10:37;;;;;;;0.50;0.50;;;;;;;8.22;74.41;97091.78;29395;216;63005;-58
2023/03/21 00:11:11;;;;;;;0.50;0.50;;;;;;;8.22;74.35;97085.56;29395;227;63009;-59
2023/03/21 00:11:43;;;;;;;0.50;0.50;;;;;;;8.23;74.50;97096.09;29395;198;63005;-58
2023/03/21 00:12:15;;;;;;;0.50;0.50;;;;;;;8.23;74.61;97092.59;29395;326;63009;-58
2023/03/21 00:12:54;;;;;;;0.50;0.50;;;;;;;8.23;74.87;97093.41;29393;202;64009;-57
2023/03/21 00:13:27;;;;;;;0.50;0.50;;;;;;;8.21;75.34;97089.34;29395;226;63020;-58
2023/03/21 00:14:01;;;;;;;0.50;0.50;;;;;;;8.18;75.61;97095.31;29395;204;63000;-58
2023/03/21 00:14:32;;;;;;;0.50;0.50;;;;;;;8.16;75.40;97092.88;29395;253;63026;-58
2023/03/21 00:15:08;;;;;;;0.50;0.50;;;;;;;8.15;75.29;97095.84;29393;231;64008;-58
2023/03/21 00:15:49;;;;;;;0.47;0.47;;;;;;;8.14;76.15;97088.81;29395;243;63008;-58
2023/03/21 00:16:20;;;;;;;0.50;0.50;;;;;;;8.15;75.69;97093.12;29417;225;63005;-57
2023/03/21 00:16:52;;;;;;;0.50;0.50;;;;;;;8.14;76.27;97084.22;29395;241;63013;-58
2023/03/21 00:17:24;;;;;;;0.50;0.50;;;;;;;8.14;75.80;97089.63;29393;216;64009;-58
2023/03/21 00:18:02;;;;;;;0.50;0.50;;;;;;;8.13;76.14;97088.00;29395;243;63016;-57
2023/03/21 00:18:40;;;;;;;0.50;0.50;;;;;;;8.14;76.07;97088.81;29395;242;63013;-57
2023/03/21 00:19:13;;;;;;;0.50;0.50;;;;;;;8.14;76.03;97088.81;29395;239;63009;-57
2023/03/21 00:19:45;;;;;;;0.50;0.50;;;;;;;8.14;76.13;97091.53;29395;222;63018;-57
2023/03/21 00:20:19;;;;;;;0.50;0.50;;;;;;;8.13;76.41;97092.59;29395;219;63026;-57
2023/03/21 00:21:05;;;;;;;0.50;0.50;;;;;;;8.13;76.69;97085.31;29395;197;63004;-58
2023/03/21 00:21:37;;;;;;;0.50;0.50;;;;;;;8.12;76.54;97080.97;29395;261;63009;-58
2023/03/21 00:22:08;;;;;;;0.50;0.50;;;;;;;8.13;77.03;97087.19;29393;215;64009;-57
2023/03/21 00:22:40;;;;;;;0.50;0.50;;;;;;;8.12;77.04;97085.56;29395;214;63008;-57
2023/03/21 00:23:12;;;;;;;0.50;0.50;;;;;;;8.11;77.54;97086.66;29395;224;63004;-57
2023/03/21 00:24:51;;;;;;;0.50;0.50;;;;;;;8.08;77.43;97078.00;88174;203;64005;-57
2023/03/21 00:25:23;;;;;;;0.50;0.50;;;;;;;8.08;76.94;97080.72;29394;220;64009;-57
2023/03/21 00:25:54;;;;;;;0.50;0.50;;;;;;;8.10;77.13;97085.03;29394;212;64009;-59
2023/03/21 00:26:25;;;;;;;0.50;0.50;;;;;;;8.08;77.65;97083.41;29395;221;63009;-57
2023/03/21 00:26:57;;;;;;;0.60;0.60;;;;;;;8.07;77.32;97081.78;29395;286;63004;-57
2023/03/21 00:27:28;;;;;;;0.50;0.50;;;;;;;8.08;77.31;97083.41;29395;205;63008;-58
2023/03/21 00:28:00;;;;;;;0.50;0.50;;;;;;;8.08;77.55;97075.31;29395;244;63004;-57
2023/03/21 00:28:31;;;;;;;0.50;0.50;;;;;;;8.08;77.20;97075.31;29395;237;63009;-58
2023/03/21 00:29:03;;;;;;;0.50;0.50;;;;;;;8.09;77.19;97081.53;29394;235;64009;-58
2023/03/21 00:29:34;;;;;;;0.50;0.50;;;;;;;8.10;77.19;97077.72;29395;326;63009;-58
2023/03/21 00:30:06;;;;;;;0.47;0.47;;;;;;;8.10;77.33;97082.34;29395;334;63011;-59
2023/03/21 00:30:39;;;;;;;0.50;0.50;;;;;;;8.10;77.73;97080.44;29395;197;63009;-57
2023/03/21 00:31:10;;;;;;;0.50;0.50;;;;;;;8.09;77.29;97076.13;29395;205;63005;-58
2023/03/21 00:31:42;;;;;;;0.50;0.50;;;;;;;8.07;78.24;97073.69;29394;211;64013;-58
2023/03/21 00:32:13;;;;;;;0.50;0.50;;;;;;;8.05;78.06;97070.44;29395;275;63004;-57
2023/03/21 00:32:46;;;;;;;0.50;0.50;;;;;;;8.01;78.14;97074.75;29395;203;63009;-57
2023/03/21 00:33:19;;;;;;;0.50;0.50;;;;;;;8.01;78.43;97063.94;29395;259;63004;-57
2023/03/21 00:33:50;;;;;;;0.50;0.50;;;;;;;8.01;78.46;97072.06;29395;216;63009;-58
2023/03/21 00:34:21;;;;;;;0.50;0.50;;;;;;;8.01;77.95;97079.34;29395;220;63004;-58
2023/03/21 00:34:53;;;;;;;0.47;0.47;;;;;;;7.99;78.36;97074.22;29395;209;63008;-58
2023/03/21 00:35:25;;;;;;;0.50;0.50;;;;;;;7.99;77.75;97071.53;29395;308;63005;-58
2023/03/21 00:35:57;;;;;;;0.50;0.50;;;;;;;7.99;77.57;97070.72;29395;273;63009;-58
2023/03/21 00:36:28;;;;;;;0.40;0.40;;;;;;;7.99;77.47;97066.13;29395;204;63005;-58
2023/03/21 00:37:00;;;;;;;0.50;0.50;;;;;;;7.98;77.67;97069.91;29394;316;64013;-56
2023/03/21 00:37:32;;;;;;;0.50;0.50;;;;;;;7.99;77.52;97071.53;29395;215;63005;-57
2023/03/21 00:38:03;;;;;;;0.50;0.50;;;;;;;8.00;77.91;97070.44;29395;216;63009;-58
2023/03/21 00:38:35;;;;;;;0.50;0.50;;;;;;;7.98;78.01;97067.19;29395;222;63005;-58
2023/03/21 00:39:07;;;;;;;0.50;0.50;;;;;;;7.97;78.19;97068.28;29395;226;63009;-58
2023/03/21 00:39:38;;;;;;;0.73;0.73;;;;;;;7.97;78.36;97060.16;29395;236;63010;-58
2023/03/21 00:40:11;;;;;;;0.50;0.50;;;;;;;7.96;78.33;97061.28;29395;252;63009;-59
2023/03/21 00:40:42;;;;;;;0.50;0.50;;;;;;;7.97;78.13;97068.28;29395;225;63004;-58
2023/03/21 00:41:13;;;;;;;0.50;0.50;;;;;;;7.98;78.06;97058.28;29394;263;64006;-57
2023/03/21 00:41:45;;;;;;;0.50;0.50;;;;;;;7.98;78.62;97064.50;29394;235;64009;-61
2023/03/21 00:42:16;;;;;;;0.50;0.50;;;;;;;7.99;78.75;97060.72;29395;282;63008;-59
2023/03/21 00:42:47;;;;;;;0.50;0.50;;;;;;;7.98;78.27;97064.50;29395;240;63007;-58
2023/03/21 00:43:22;;;;;;;0.50;0.50;;;;;;;7.99;78.76;97060.72;29395;198;63009;-57
2023/03/21 00:43:54;;;;;;;0.50;0.50;;;;;;;7.99;78.78;97062.59;29395;203;63005;-57
2023/03/21 00:44:25;;;;;;;0.50;0.50;;;;;;;7.99;78.84;97057.19;29395;269;63009;-57
2023/03/21 00:44:57;;;;;;;0.50;0.50;;;;;;;7.98;78.43;97058.28;29395;224;63005;-57
2023/03/21 00:45:28;;;;;;;0.50;0.50;;;;;;;7.99;78.34;97060.72;29395;202;63009;-58
2023/03/21 00:45:59;;;;;;;0.50;0.50;;;;;;;7.98;78.37;97059.09;29395;274;63005;-58
2023/03/21 00:46:31;;;;;;;0.50;0.50;;;;;;;7.98;78.34;97059.09;29395;223;63009;-57
2023/03/21 00:47:04;;;;;;;0.50;0.50;;;;;;;7.98;78.66;97053.69;29394;252;64009;-58
2023/03/21 00:47:36;;;;;;;0.50;0.50;;;;;;;7.98;79.04;97059.09;29395;253;63009;-57
2023/03/21 00:48:08;;;;;;;0.50;0.50;;;;;;;7.97;78.40;97057.47;29395;202;63004;-57
2023/03/21 00:48:39;;;;;;;0.50;0.50;;;;;;;7.96;78.83;97052.37;29395;226;63009;-57
2023/03/21 00:49:10;;;;;;;0.50;0.50;;;;;;;7.93;79.06;97056.41;29395;209;63004;-57
2023/03/21 00:49:41;;;;;;;0.50;0.50;;;;;;;7.92;78.74;97048.59;29394;240;64013;-58
2023/03/21 00:50:13;;;;;;;0.50;0.50;;;;;;;7.93;78.68;97051.03;29395;214;63005;-57
2023/03/21 00:50:45;;;;;;;0.50;0.50;;;;;;;7.89;78.93;97041.84;29395;274;63009;-57
2023/03/21 00:51:25;;;;;;;0.50;0.50;;;;;;;7.92;79.11;97054.00;29395;316;63005;-57
2023/03/21 00:51:57;;;;;;;0.50;0.50;;;;;;;7.92;79.36;97048.59;29395;252;63009;-59
2023/03/21 00:52:28;;;;;;;0.70;0.70;;;;;;;7.92;79.29;97049.41;29395;299;63005;-58
2023/03/21 00:52:59;;;;;;;0.50;0.50;;;;;;;7.92;79.29;97046.69;29395;199;63009;-58
2023/03/21 00:53:31;;;;;;;0.50;0.50;;;;;;;7.92;79.01;97052.09;29395;265;63005;-57
2023/03/21 00:54:04;;;;;;;0.50;0.50;;;;;;;7.91;79.05;97050.47;29395;212;63015;-57
2023/03/21 00:54:36;;;;;;;0.50;0.50;;;;;;;7.91;79.16;97041.56;29395;243;63004;-58
2023/03/21 00:55:13;;;;;;;0.50;0.50;;;;;;;7.88;79.37;97042.91;29394;203;64013;-58
2023/03/21 00:55:45;;;;;;;0.50;0.50;;;;;;;7.87;79.05;97052.09;29395;248;63004;-57
2023/03/21 00:56:19;;;;;;;0.50;0.50;;;;;;;7.86;79.06;97044.25;29395;238;63009;-57
2023/03/21 00:56:51;;;;;;;0.50;0.50;;;;;;;7.86;78.87;97045.06;29395;197;63004;-58
2023/03/21 00:57:22;;;;;;;0.50;0.50;;;;;;;7.88;78.89;97047.50;29395;210;63008;-58
2023/03/21 00:57:53;;;;;;;0.50;0.50;;;;;;;7.87;78.95;97040.47;29395;203;63005;-58
2023/03/21 00:58:25;;;;;;;0.50;0.50;;;;;;;7.87;78.75;97041.28;29395;248;63009;-58
2023/03/21 00:58:56;;;;;;;0.50;0.50;;;;;;;7.88;78.72;97039.41;29395;290;63005;-59
2023/03/21 00:59:27;;;;;;;0.50;0.50;;;;;;;7.88;78.85;97042.91;29395;312;63009;-58
2023/03/21 00:59:59;;;;;;;0.50;0.50;;;;;;;7.89;78.78;97041.03;29395;234;63005;-57
2023/03/21 01:00:38;;;;;;;0.50;0.50;;;;;;;7.88;78.76;97042.91;29394;307;64013;-63
2023/03/21 01:01:09;;;;;;;0.50;0.50;;;;;;;7.87;78.46;97038.59;29395;209;63005;-59
2023/03/21 01:01:40;;;;;;;0.50;0.50;;;;;;;7.86;78.58;97042.38;29395;220;63009;-57
2023/03/21 01:02:13;;;;;;;0.50;0.50;;;;;;;7.86;78.42;97041.56;29395;264;63009;-58
2023/03/21 01:02:55;;;;;;;0.50;0.50;;;;;;;7.86;78.36;97038.88;29394;226;64013;-58
2023/03/21 01:03:27;;;;;;;0.50;0.50;;;;;;;7.85;79.56;97043.44;29395;229;63004;-57
2023/03/21 01:04:09;;;;;;;0.50;0.50;;;;;;;7.85;79.33;97042.66;29395;222;63009;-58
2023/03/21 01:04:41;;;;;;;0.50;0.50;;;;;;;7.86;78.74;97050.47;29395;203;63004;-57
2023/03/21 01:05:36;;;;;;;0.50;0.50;;;;;;;7.86;79.06;97039.66;29395;203;63019;-58
2023/03/21 01:06:04;;;;;;;0.50;0.50;;;;;;;7.87;79.10;97041.28;29417;249;63005;-58
2023/03/21 01:06:40;;;;;;;0.50;0.50;;;;;;;7.87;79.00;97038.59;29395;216;63009;-57
2023/03/21 01:07:11;;;;;;;0.50;0.50;;;;;;;7.87;78.90;97040.47;29395;197;63005;-57
2023/03/21 01:07:42;;;;;;;0.50;0.50;;;;;;;7.85;79.26;97038.06;29395;218;63024;-58
2023/03/21 01:08:17;;;;;;;0.40;0.40;;;;;;;7.84;79.17;97041.84;29394;203;64009;-57
2023/03/21 01:08:49;;;;;;;0.50;0.50;;;;;;;7.84;78.99;97038.31;29394;222;64013;-58
2023/03/21 01:09:22;;;;;;;0.50;0.50;;;;;;;7.84;79.06;97038.31;29395;255;63005;-58
2023/03/21 01:09:56;;;;;;;0.50;0.50;;;;;;;7.84;78.64;97041.84;29395;245;63027;-58
2023/03/21 01:10:28;;;;;;;0.50;0.50;;;;;;;7.83;78.71;97034.81;29395;238;63004;-58
2023/03/21 01:11:05;;;;;;;0.50;0.50;;;;;;;7.83;79.03;97034.81;29395;206;63009;-59
2023/03/21 01:11:37;;;;;;;0.50;0.50;;;;;;;7.83;78.65;97044.81;29395;222;63004;-58
2023/03/21 01:12:09;;;;;;;0.50;0.50;;;;;;;7.83;78.85;97034.81;29395;228;63008;-57
2023/03/21 01:12:40;;;;;;;0.50;0.50;;;;;;;7.84;78.85;97032.91;29394;203;64008;-57
2023/03/21 01:13:13;;;;;;;0.50;0.50;;;;;;;7.83;78.59;97040.22;29395;229;63009;-59
2023/03/21 01:13:45;;;;;;;0.50;0.50;;;;;;;7.83;78.58;97034.81;29395;218;63005;-57
2023/03/21 01:14:19;;;;;;;0.40;0.40;;;;;;;7.83;78.80;97037.50;29395;207;63009;-57
2023/03/21 01:14:50;;;;;;;0.50;0.50;;;;;;;7.83;78.61;97040.22;29395;306;63005;-58
2023/03/21 01:15:22;;;;;;;0.50;0.50;;;;;;;7.83;78.85;97051.00;29394;225;64013;-58
2023/03/21 01:15:55;;;;;;;0.50;0.50;;;;;;;7.83;79.14;97045.63;29394;287;64009;-58
2023/03/21 01:16:27;;;;;;;0.40;0.40;;;;;;;7.83;78.93;97047.50;29395;206;63009;-62
2023/03/21 01:16:58;;;;;;;0.50;0.50;;;;;;;7.83;79.05;97045.63;29395;202;63005;-58
2023/03/21 01:17:29;;;;;;;0.40;0.40;;;;;;;7.82;79.43;97038.59;29395;216;63009;-59
2023/03/21 01:18:00;;;;;;;0.50;0.50;;;;;;;7.82;79.28;97037.78;29395;260;63004;-57
2023/03/21 01:18:33;;;;;;;0.50;0.50;;;;;;;7.82;79.61;97041.28;29395;252;63004;-59
2023/03/21 01:19:07;;;;;;;0.50;0.50;;;;;;;7.81;79.60;97036.97;29394;240;64009;-57
2023/03/21 01:19:38;;;;;;;0.47;0.47;;;;;;;7.81;79.57;97041.56;29395;289;63008;-59
2023/03/21 01:20:12;;;;;;;0.50;0.50;;;;;;;7.80;79.55;97039.94;29395;249;63004;-58
2023/03/21 01:20:44;;;;;;;0.50;0.50;;;;;;;7.78;79.86;97034.81;29395;227;63016;-57
2023/03/21 01:21:16;;;;;;;0.50;0.50;;;;;;;7.78;79.89;97040.22;29395;303;63015;-59
2023/03/21 01:21:48;;;;;;;0.50;0.50;;;;;;;7.77;80.00;97035.87;29395;197;63009;-59
2023/03/21 01:22:20;;;;;;;0.50;0.50;;;;;;;7.77;80.16;97035.87;29395;235;63005;-58
2023/03/21 01:22:51;;;;;;;0.50;0.50;;;;;;;7.76;80.60;97034.28;29395;245;63009;-58
2023/03/21 01:23:23;;;;;;;0.50;0.50;;;;;;;7.75;80.87;97032.66;29395;225;63005;-58
2023/03/21 01:23:54;;;;;;;0.50;0.50;;;;;;;7.74;81.67;97039.13;29395;213;63009;-63
2023/03/21 01:24:25;;;;;;;0.50;0.50;;;;;;;7.72;81.21;97039.41;29394;276;64009;-58
2023/03/21 01:24:57;;;;;;;0.50;0.50;;;;;;;7.72;81.47;97038.59;29395;210;63009;-57
2023/03/21 01:25:28;;;;;;;0.50;0.50;;;;;;;7.72;81.45;97028.59;29395;246;63004;-60
2023/03/21 01:25:59;;;;;;;0.50;0.50;;;;;;;7.72;81.29;97044.00;29394;271;64004;-58
2023/03/21 01:26:31;;;;;;;0.50;0.50;;;;;;;7.72;80.91;97038.59;29395;270;63004;-58
2023/03/21 01:27:03;;;;;;;0.50;0.50;;;;;;;7.70;81.49;97040.75;29395;270;63008;-58
2023/03/21 01:27:34;;;;;;;0.50;0.50;;;;;;;7.69;81.39;97033.72;29395;196;63004;-59
2023/03/21 01:28:06;;;;;;;0.50;0.50;;;;;;;7.70;81.54;97041.56;29395;254;63009;-58
2023/03/21 01:28:39;;;;;;;0.50;0.50;;;;;;;7.70;81.98;97040.75;29395;244;63005;-57
2023/03/21 01:29:11;;;;;;;0.50;0.50;;;;;;;7.70;83.06;97035.34;29394;197;64013;-58
2023/03/21 01:29:42;;;;;;;1.08;1.08;;;;;;;7.69;83.82;97033.72;29395;241;63015;-57
2023/03/21 01:30:14;;;;;;;0.50;0.50;;;;;;;7.67;84.20;97030.47;29394;259;64013;-58
2023/03/21 01:30:48;;;;;;;0.50;0.50;;;;;;;7.64;84.87;97037.22;29395;203;63005;-59
2023/03/21 01:31:20;;;;;;;0.50;0.50;;;;;;;7.64;85.01;97034.53;29395;214;63009;-58
2023/03/21 01:31:51;;;;;;;0.50;0.50;;;;;;;7.63;84.62;97032.91;29395;247;63004;-58
2023/03/21 01:32:22;;;;;;;0.50;0.50;;;;;;;7.64;84.20;97033.72;29395;225;63009;-57
2023/03/21 01:32:54;;;;;;;0.50;0.50;;;;;;;7.64;83.73;97031.03;29395;225;63004;-58
2023/03/21 01:33:25;;;;;;;0.50;0.50;;;;;;;7.64;83.52;97034.53;29395;262;63009;-58
2023/03/21 01:33:56;;;;;;;0.50;0.50;;;;;;;7.65;83.14;97033.44;29395;202;63004;-58
2023/03/21 01:34:28;;;;;;;0.50;0.50;;;;;;;7.66;83.57;97035.06;29395;240;63008;-58
2023/03/21 01:34:59;;;;;;;0.50;0.50;;;;;;;7.66;83.75;97034.25;29395;308;63005;-57
2023/03/21 01:35:30;;;;;;;0.50;0.50;;;;;;;7.65;83.52;97027.25;29394;241;64014;-58
2023/03/21 01:36:05;;;;;;;0.50;0.50;;;;;;;7.65;83.27;97028.06;29395;197;63008;-58
2023/03/21 01:36:37;;;;;;;0.50;0.50;;;;;;;7.65;83.37;97028.06;29395;234;63009;-58
2023/03/21 01:37:08;;;;;;;0.50;0.50;;;;;;;7.64;83.38;97031.03;29395;207;63005;-57
2023/03/21 01:37:40;;;;;;;0.50;0.50;;;;;;;7.64;83.25;97033.72;29395;361;63009;-58
2023/03/21 01:38:12;;;;;;;0.50;0.50;;;;;;;7.64;83.00;97039.13;29394;227;64009;-58
2023/03/21 01:38:44;;;;;;;0.50;0.50;;;;;;;7.64;82.80;97031.03;29395;196;63024;-57
2023/03/21 01:39:15;;;;;;;0.50;0.50;;;;;;;7.64;82.99;97033.72;29395;278;63004;-57
2023/03/21 01:39:47;;;;;;;0.50;0.50;;;;;;;7.65;83.67;97032.66;29395;202;63009;-58
2023/03/21 01:40:25;;;;;;;0.50;0.50;;;;;;;7.61;83.76;97028.87;29395;242;63004;-57
2023/03/21 01:41:01;;;;;;;0.50;0.50;;;;;;;7.61;83.82;97031.59;29395;336;63009;-58
2023/03/21 01:41:40;;;;;;;0.50;0.50;;;;;;;7.61;82.72;97037.00;29395;312;63004;-57
2023/03/21 01:42:14;;;;;;;0.50;0.50;;;;;;;7.61;82.63;97026.19;29394;207;64014;-57
2023/03/21 01:42:46;;;;;;;0.50;0.50;;;;;;;7.63;82.41;97037.50;29395;242;63011;-58
2023/03/21 01:43:31;;;;;;;0.50;0.50;;;;;;;7.62;82.39;97030.50;29395;202;63009;-57
2023/03/21 01:44:03;;;;;;;0.50;0.50;;;;;;;7.61;82.11;97027.00;29395;238;63005;-58
2023/03/21 01:44:56;;;;;;;0.50;0.50;;;;;;;7.61;82.19;97032.41;29395;270;63009;-59
2023/03/21 01:46:04;;;;;;;0.50;0.50;;;;;;;7.61;81.98;97028.87;29395;202;63005;-57
2023/03/21 01:46:48;;;;;;;0.50;0.50;;;;;;;7.63;82.22;97029.41;29395;245;63004;-58
2023/03/21 01:47:20;;;;;;;0.50;0.50;;;;;;;7.62;81.59;97028.59;29394;207;64013;-58
2023/03/21 01:47:51;;;;;;;0.50;0.50;;;;;;;7.63;82.19;97029.41;29395;260;63004;-58
2023/03/21 01:48:24;;;;;;;0.50;0.50;;;;;;;7.64;82.02;97020.22;29395;214;63009;-59
2023/03/21 01:49:02;;;;;;;0.50;0.50;;;;;;;7.67;82.04;97025.09;29395;301;63004;-59
2023/03/21 01:49:39;;;;;;;0.50;0.50;;;;;;;7.67;81.82;97025.09;29394;210;64013;-58
2023/03/21 01:50:11;;;;;;;0.50;0.50;;;;;;;7.68;81.91;97027.50;29395;258;63005;-58
2023/03/21 01:50:43;;;;;;;0.50;0.50;;;;;;;7.69;81.72;97023.72;29395;225;63009;-59
2023/03/21 01:51:14;;;;;;;0.50;0.50;;;;;;;7.69;83.11;97028.31;29395;203;63011;-57
2023/03/21 01:52:11;;;;;;;0.50;0.50;;;;;;;7.65;83.39;97027.25;29395;197;63005;-58
2023/03/21 01:52:45;;;;;;;0.50;0.50;;;;;;;7.63;83.31;97026.69;29395;220;63005;-58
2023/03/21 01:53:20;;;;;;;0.50;0.50;;;;;;;7.62;82.91;97027.81;29395;214;63009;-59
2023/03/21 01:53:52;;;;;;;0.50;0.50;;;;;;;7.62;83.15;97025.09;29395;211;63008;-57
2023/03/21 01:54:28;;;;;;;0.50;0.50;;;;;;;7.62;82.40;97023.19;29395;303;63009;-58
2023/03/21 01:55:01;;;;;;;0.50;0.50;;;;;;;7.63;82.46;97022.09;29394;216;64009;-58
2023/03/21 01:55:35;;;;;;;0.50;0.50;;;;;;;7.66;82.34;97028.87;29395;213;63009;-58
2023/03/21 01:56:15;;;;;;;0.50;0.50;;;;;;;7.67;82.27;97025.09;29395;282;63009;-58
2023/03/21 01:56:47;;;;;;;0.60;0.60;;;;;;;7.69;82.00;97017.53;29417;212;63008;-58
2023/03/21 01:57:31;;;;;;;0.50;0.50;;;;;;;7.69;81.90;97021.03;29395;268;63005;-58
2023/03/21 01:58:04;;;;;;;0.50;0.50;;;;;;;7.67;81.27;97011.56;29395;209;63009;-58
2023/03/21 01:58:37;;;;;;;0.50;0.50;;;;;;;7.65;81.64;97016.44;29394;219;64005;-58
2023/03/21 01:59:17;;;;;;;0.50;0.50;;;;;;;7.63;82.19;97018.59;29395;206;63009;-58
2023/03/21 01:59:53;;;;;;;0.50;0.50;;;;;;;7.62;82.68;97017.00;29395;269;63016;-58
2023/03/21 02:00:28;;;;;;;0.50;0.50;;;;;;;7.61;82.66;97016.19;29394;229;64013;-60
2023/03/21 02:01:01;;;;;;;0.50;0.50;;;;;;;7.60;82.67;97014.56;29395;214;63005;-59
2023/03/21 02:01:33;;;;;;;0.50;0.50;;;;;;;7.61;82.45;97012.69;29395;214;63023;-58
2023/03/21 02:02:08;;;;;;;0.50;0.50;;;;;;;7.62;82.38;97014.31;29395;202;63004;-58
2023/03/21 02:02:50;;;;;;;0.50;0.50;;;;;;;7.63;82.10;97013.19;29394;240;64006;-58
2023/03/21 02:03:23;;;;;;;0.50;0.50;;;;;;;7.64;82.42;97012.13;29395;208;63004;-58
2023/03/21 02:03:55;;;;;;;0.50;0.50;;;;;;;7.65;81.96;97011.03;29395;263;63009;-58
2023/03/21 02:04:27;;;;;;;0.50;0.50;;;;;;;7.66;82.23;97015.34;29395;246;63004;-59
2023/03/21 02:05:02;;;;;;;0.50;0.50;;;;;;;7.65;81.98;97016.44;29395;240;63009;-59
2023/03/21 02:06:10;;;;;;;0.50;0.50;;;;;;;7.66;81.72;97002.66;29395;203;63005;-58
2023/03/21 02:06:59;;;;;;;0.50;0.50;;;;;;;7.68;81.31;97013.19;29395;240;63009;-58
2023/03/21 02:07:35;;;;;;;0.50;0.50;;;;;;;7.69;81.38;97012.13;29395;297;63005;-58
2023/03/21 02:08:07;;;;;;;0.50;0.50;;;;;;;7.68;81.19;97011.31;29394;282;64013;-58
2023/03/21 02:08:39;;;;;;;0.50;0.50;;;;;;;7.66;81.82;97009.97;29395;203;63005;-58
2023/03/21 02:09:17;;;;;;;0.50;0.50;;;;;;;7.64;82.49;97010.22;29395;224;63009;-58
2023/03/21 02:09:50;;;;;;;0.75;0.75;;;;;;;7.63;82.29;97011.31;29395;226;63004;-58
2023/03/21 02:10:21;;;;;;;0.50;0.50;;;;;;;7.61;82.12;97004.59;29395;206;63009;-58
2023/03/21 02:10:53;;;;;;;0.50;0.50;;;;;;;7.61;82.51;97004.59;29395;303;63004;-63
2023/03/21 02:11:25;;;;;;;0.50;0.50;;;;;;;7.59;82.78;97007.56;29395;289;63009;-57
2023/03/21 02:11:58;;;;;;;0.60;0.60;;;;;;;7.59;83.07;97009.44;29395;252;63004;-57
2023/03/21 02:12:31;;;;;;;0.50;0.50;;;;;;;7.58;83.06;97005.94;29395;197;63009;-57
2023/03/21 02:13:08;;;;;;;0.50;0.50;;;;;;;7.59;82.73;97007.56;29394;272;64009;-57
2023/03/21 02:13:39;;;;;;;0.50;0.50;;;;;;;7.59;83.01;97007.56;29395;269;63023;-58
2023/03/21 02:14:15;;;;;;;0.50;0.50;;;;;;;7.59;82.91;97007.56;29395;268;63005;-57
2023/03/21 02:14:48;;;;;;;0.50;0.50;;;;;;;7.60;82.56;97013.78;29395;202;63009;-58
2023/03/21 02:15:21;;;;;;;0.50;0.50;;;;;;;7.60;82.66;97002.97;29395;269;63005;-57
2023/03/21 02:16:05;;;;;;;0.50;0.50;;;;;;;7.60;82.43;97003.78;29394;328;64013;-59
2023/03/21 02:17:18;;;;;;;0.50;0.50;;;;;;;7.61;82.35;97010.00;29394;224;63998;-57
2023/03/21 02:18:32;;;;;;;0.50;0.50;;;;;;;7.64;81.82;97006.72;29395;261;63024;-57
2023/03/21 02:19:35;;;;;;;0.50;0.50;;;;;;;7.64;81.85;97004.00;29394;224;64018;-57
2023/03/21 02:21:02;;;;;;;0.50;0.50;;;;;;;7.64;81.43;97004.00;29395;372;63005;-58
2023/03/21 02:22:25;;;;;;;0.50;0.50;;;;;;;7.65;80.89;97003.75;29395;226;63005;-56
2023/03/21 02:23:33;;;;;;;0.50;0.50;;;;;;;7.68;80.99;97013.19;29417;294;63009;-59
2023/03/21 02:25:03;;;;;;;0.50;0.50;;;;;;;7.70;80.85;97008.34;29394;211;64013;-57
2023/03/21 02:26:15;;;;;;;0.50;0.50;;;;;;;7.71;80.52;97009.97;29394;232;64009;-57
2023/03/21 02:27:17;;;;;;;0.50;0.50;;;;;;;7.71;80.44;97010.78;29417;281;63004;-59
2023/03/21 02:28:43;;;;;;;0.50;0.50;;;;;;;7.71;80.40;97009.97;29417;230;63009;-58
2023/03/21 02:30:20;;;;;;;0.50;0.50;;;;;;;7.69;80.92;97007.53;29395;199;63005;-57
2023/03/21 02:31:33;;;;;;;0.50;0.50;;;;;;;7.66;80.74;97007.25;29394;198;64013;-58
2023/03/21 02:32:52;;;;;;;0.40;0.40;;;;;;;7.65;80.94;96997.53;29417;230;63009;-57
2023/03/21 02:34:15;;;;;;;0.50;0.50;;;;;;;7.66;80.62;97002.66;29395;286;63017;-58
2023/03/21 02:35:38;;;;;;;0.60;0.60;;;;;;;7.67;80.59;96996.19;29417;240;63008;-58
2023/03/21 02:36:27;;;;;;;0.50;0.50;;;;;;;7.70;80.48;96997.53;29416;288;64009;-57
2023/03/21 02:37:10;;;;;;;0.50;0.50;;;;;;;7.70;80.19;96990.25;29394;233;64013;-57
2023/03/21 02:37:58;;;;;;;0.50;0.50;;;;;;;7.70;80.10;96997.53;29395;233;63005;-58
2023/03/21 02:38:42;;;;;;;0.50;0.50;;;;;;;7.70;80.14;96998.34;29395;289;63009;-57
2023/03/21 02:39:31;;;;;;;0.50;0.50;;;;;;;7.70;80.57;96995.66;29395;243;63004;-58
2023/03/21 02:40:11;;;;;;;0.50;0.50;;;;;;;7.71;80.62;96991.06;29395;204;63009;-57
2023/03/21 02:40:49;;;;;;;0.50;0.50;;;;;;;7.69;80.83;96990.50;29395;235;63004;-58
2023/03/21 02:41:51;;;;;;;0.50;0.50;;;;;;;7.69;81.21;96990.50;29395;202;63008;-60
2023/03/21 02:42:44;;;;;;;0.50;0.50;;;;;;;7.66;81.97;96994.56;29416;285;64014;-58
2023/03/21 02:44:13;;;;;;;0.50;0.50;;;;;;;7.64;82.93;96998.63;29395;236;63005;-58
2023/03/21 02:45:07;;;;;;;0.50;0.50;;;;;;;7.60;83.08;96997.56;29395;209;63009;-59
2023/03/21 02:45:49;;;;;;;0.50;0.50;;;;;;;7.59;82.83;96995.94;29395;275;63005;-59
2023/03/21 02:46:33;;;;;;;0.50;0.50;;;;;;;7.60;82.27;96992.16;29416;236;64013;-59
2023/03/21 02:47:17;;;;;;;0.50;0.50;;;;;;;7.60;82.47;96986.75;29395;226;63004;-57
2023/03/21 02:47:54;;;;;;;0.50;0.50;;;;;;;7.60;82.34;96989.47;29395;201;63009;-58
2023/03/21 02:48:35;;;;;;;0.50;0.50;;;;;;;7.59;82.30;96991.34;29395;232;63004;-57
2023/03/21 02:49:29;;;;;;;0.60;0.60;;;;;;;7.60;82.28;96984.06;29439;253;63008;-57
2023/03/21 02:50:33;;;;;;;0.50;0.50;;;;;;;7.60;82.01;96997.56;29395;277;63005;-63
2023/03/21 02:51:07;;;;;;;0.50;0.50;;;;;;;7.60;81.55;96992.16;29395;206;63009;-58
2023/03/21 02:51:40;;;;;;;0.50;0.50;;;;;;;7.61;81.46;96982.97;29394;244;64009;-58
2023/03/21 02:52:17;;;;;;;0.50;0.50;;;;;;;7.63;81.32;96986.19;29395;210;63009;-57
2023/03/21 02:52:51;;;;;;;0.50;0.50;;;;;;;7.62;81.46;96995.41;29395;222;63005;-58
2023/03/21 02:53:27;;;;;;;0.50;0.50;;;;;;;7.62;81.59;96998.09;29394;227;64013;-57
2023/03/21 02:54:06;;;;;;;0.50;0.50;;;;;;;7.61;81.72;96997.28;29395;240;63011;-58
2023/03/21 02:54:40;;;;;;;0.50;0.50;;;;;;;7.61;82.62;96993.78;29395;196;63017;-58
2023/03/21 02:55:17;;;;;;;0.50;0.50;;;;;;;7.58;83.11;96992.44;29395;215;63004;-59
2023/03/21 02:55:51;;;;;;;0.50;0.50;;;;;;;7.57;82.35;96995.41;29395;208;63009;-60
2023/03/21 02:56:24;;;;;;;0.50;0.50;;;;;;;7.57;82.34;96990.81;29395;215;63004;-58
2023/03/21 02:56:58;;;;;;;0.50;0.50;;;;;;;7.57;82.43;96990.00;29395;334;63009;-57
2023/03/21 02:57:31;;;;;;;0.50;0.50;;;;;;;7.58;82.37;96994.31;29395;225;63005;-58
2023/03/21 02:58:03;;;;;;;0.50;0.50;;;;;;;7.58;82.58;96988.91;29394;230;64014;-57
2023/03/21 02:58:36;;;;;;;0.50;0.50;;;;;;;7.57;82.69;96988.13;29395;191;63005;-57
2023/03/21 02:59:09;;;;;;;0.50;0.50;;;;;;;7.57;82.58;96987.31;29395;213;63009;-57
2023/03/21 02:59:41;;;;;;;0.50;0.50;;;;;;;7.57;82.55;96987.31;29395;263;63005;-58